sensor_id;sensor_type;location;lat;lon;timestamp;P1;durP1;ratioP1;P2;durP2;ratioP2
4597;SDS011;62772;48.646;8.906;2024-01-30T00:02:06;16.20;;;9.50;;
4597;SDS011;62772;48.646;8.906;2024-01-30T00:07:07;16.70;;;9.90;;
4597;SDS011;62772;48.646;8.906;2024-01-30T00:12:07;17.70;;;9.77;;
4597;SDS011;62772;48.646;8.906;2024-01-30T00:17:08;20.77;;;10.53;;
4597;SDS011;62772;48.646;8.906;2024-01-30T00:22:08;20.17;;;10.17;;
4597;SDS011;62772;48.646;8.906;2024-01-30T00:27:09;19.70;;;9.87;;
4597;SDS011;62772;48.646;8.906;2024-01-30T00:32:12;18.03;;;10.20;;
4597;SDS011;62772;48.646;8.906;2024-01-30T00:37:12;20.90;;;12.70;;
4597;SDS011;62772;48.646;8.906;2024-01-30T00:42:13;22.87;;;11.90;;
4597;SDS011;62772;48.646;8.906;2024-01-30T00:47:13;19.90;;;11.80;;
4597;SDS011;62772;48.646;8.906;2024-01-30T00:52:14;18.83;;;11.40;;
4597;SDS011;62772;48.646;8.906;2024-01-30T00:57:14;19.00;;;11.20;;
4597;SDS011;62772;48.646;8.906;2024-01-30T01:02:15;18.07;;;10.63;;
4597;SDS011;62772;48.646;8.906;2024-01-30T01:07:17;19.60;;;11.87;;
4597;SDS011;62772;48.646;8.906;2024-01-30T01:12:17;26.13;;;11.87;;
4597;SDS011;62772;48.646;8.906;2024-01-30T01:17:18;18.77;;;11.10;;
4597;SDS011;62772;48.646;8.906;2024-01-30T01:22:18;18.00;;;10.30;;
4597;SDS011;62772;48.646;8.906;2024-01-30T01:27:19;18.97;;;11.73;;
4597;SDS011;62772;48.646;8.906;2024-01-30T01:32:19;18.43;;;10.80;;
4597;SDS011;62772;48.646;8.906;2024-01-30T01:37:20;25.13;;;12.03;;
4597;SDS011;62772;48.646;8.906;2024-01-30T01:42:22;20.50;;;10.77;;
4597;SDS011;62772;48.646;8.906;2024-01-30T01:47:22;18.70;;;11.07;;
4597;SDS011;62772;48.646;8.906;2024-01-30T01:52:23;21.47;;;10.03;;
4597;SDS011;62772;48.646;8.906;2024-01-30T01:57:23;16.97;;;9.77;;
4597;SDS011;62772;48.646;8.906;2024-01-30T02:02:24;16.03;;;9.47;;
4597;SDS011;62772;48.646;8.906;2024-01-30T02:07:27;16.97;;;10.10;;
4597;SDS011;62772;48.646;8.906;2024-01-30T02:12:28;17.03;;;9.80;;
4597;SDS011;62772;48.646;8.906;2024-01-30T02:17:28;17.10;;;9.10;;
4597;SDS011;62772;48.646;8.906;2024-01-30T02:22:29;16.93;;;10.00;;
4597;SDS011;62772;48.646;8.906;2024-01-30T02:27:30;19.33;;;10.60;;
4597;SDS011;62772;48.646;8.906;2024-01-30T02:32:30;17.50;;;9.43;;
4597;SDS011;62772;48.646;8.906;2024-01-30T02:37:30;18.97;;;10.70;;
4597;SDS011;62772;48.646;8.906;2024-01-30T02:42:31;18.17;;;9.97;;
4597;SDS011;62772;48.646;8.906;2024-01-30T02:47:31;16.97;;;9.90;;
4597;SDS011;62772;48.646;8.906;2024-01-30T02:52:32;19.80;;;9.70;;
4597;SDS011;62772;48.646;8.906;2024-01-30T02:57:32;18.80;;;9.90;;
4597;SDS011;62772;48.646;8.906;2024-01-30T03:02:34;17.33;;;10.23;;
4597;SDS011;62772;48.646;8.906;2024-01-30T03:07:35;26.40;;;9.93;;
4597;SDS011;62772;48.646;8.906;2024-01-30T03:12:36;17.00;;;9.80;;
4597;SDS011;62772;48.646;8.906;2024-01-30T03:17:36;19.50;;;11.00;;
4597;SDS011;62772;48.646;8.906;2024-01-30T03:22:37;20.10;;;10.63;;
4597;SDS011;62772;48.646;8.906;2024-01-30T03:27:37;16.10;;;9.40;;
4597;SDS011;62772;48.646;8.906;2024-01-30T03:32:38;19.87;;;10.47;;
4597;SDS011;62772;48.646;8.906;2024-01-30T03:37:38;17.60;;;10.30;;
4597;SDS011;62772;48.646;8.906;2024-01-30T03:42:38;18.33;;;11.23;;
4597;SDS011;62772;48.646;8.906;2024-01-30T03:47:39;22.27;;;12.20;;
4597;SDS011;62772;48.646;8.906;2024-01-30T03:52:39;17.40;;;10.00;;
4597;SDS011;62772;48.646;8.906;2024-01-30T03:57:40;20.50;;;10.10;;
4597;SDS011;62772;48.646;8.906;2024-01-30T04:02:40;19.83;;;10.57;;
4597;SDS011;62772;48.646;8.906;2024-01-30T04:07:41;16.37;;;9.60;;
4597;SDS011;62772;48.646;8.906;2024-01-30T04:12:41;14.50;;;8.83;;
4597;SDS011;62772;48.646;8.906;2024-01-30T04:17:42;17.33;;;9.10;;
4597;SDS011;62772;48.646;8.906;2024-01-30T04:22:43;15.03;;;9.00;;
4597;SDS011;62772;48.646;8.906;2024-01-30T04:27:44;15.87;;;8.90;;
4597;SDS011;62772;48.646;8.906;2024-01-30T04:32:45;15.67;;;8.93;;
4597;SDS011;62772;48.646;8.906;2024-01-30T04:37:45;15.53;;;8.80;;
4597;SDS011;62772;48.646;8.906;2024-01-30T04:42:46;16.07;;;8.83;;
4597;SDS011;62772;48.646;8.906;2024-01-30T04:47:46;16.43;;;9.03;;
4597;SDS011;62772;48.646;8.906;2024-01-30T04:52:47;16.70;;;9.17;;
4597;SDS011;62772;48.646;8.906;2024-01-30T04:57:47;14.10;;;8.50;;
4597;SDS011;62772;48.646;8.906;2024-01-30T05:02:47;19.67;;;10.13;;
4597;SDS011;62772;48.646;8.906;2024-01-30T05:07:48;16.10;;;9.43;;
4597;SDS011;62772;48.646;8.906;2024-01-30T05:12:49;14.03;;;8.03;;
4597;SDS011;62772;48.646;8.906;2024-01-30T05:17:49;17.37;;;8.70;;
4597;SDS011;62772;48.646;8.906;2024-01-30T05:22:50;17.00;;;9.40;;
4597;SDS011;62772;48.646;8.906;2024-01-30T05:27:50;13.47;;;8.07;;
4597;SDS011;62772;48.646;8.906;2024-01-30T05:32:51;14.97;;;8.23;;
4597;SDS011;62772;48.646;8.906;2024-01-30T05:37:52;18.40;;;8.53;;
4597;SDS011;62772;48.646;8.906;2024-01-30T05:42:53;16.00;;;8.77;;
4597;SDS011;62772;48.646;8.906;2024-01-30T05:47:54;17.00;;;8.53;;
4597;SDS011;62772;48.646;8.906;2024-01-30T05:52:54;14.90;;;8.80;;
4597;SDS011;62772;48.646;8.906;2024-01-30T05:57:55;12.47;;;8.10;;
4597;SDS011;62772;48.646;8.906;2024-01-30T06:02:55;13.73;;;8.50;;
4597;SDS011;62772;48.646;8.906;2024-01-30T06:07:56;14.00;;;8.00;;
4597;SDS011;62772;48.646;8.906;2024-01-30T06:12:56;15.07;;;9.00;;
4597;SDS011;62772;48.646;8.906;2024-01-30T06:17:56;20.33;;;9.90;;
4597;SDS011;62772;48.646;8.906;2024-01-30T06:22:57;20.93;;;10.03;;
4597;SDS011;62772;48.646;8.906;2024-01-30T06:27:57;22.70;;;11.43;;
4597;SDS011;62772;48.646;8.906;2024-01-30T06:32:58;19.23;;;11.00;;
4597;SDS011;62772;48.646;8.906;2024-01-30T06:37:58;17.30;;;10.40;;
4597;SDS011;62772;48.646;8.906;2024-01-30T06:42:59;25.23;;;11.50;;
4597;SDS011;62772;48.646;8.906;2024-01-30T06:47:59;22.50;;;11.23;;
4597;SDS011;62772;48.646;8.906;2024-01-30T06:53:00;26.90;;;11.50;;
4597;SDS011;62772;48.646;8.906;2024-01-30T06:58:00;18.73;;;9.90;;
4597;SDS011;62772;48.646;8.906;2024-01-30T07:03:01;19.30;;;10.13;;
4597;SDS011;62772;48.646;8.906;2024-01-30T07:08:02;14.10;;;8.70;;
4597;SDS011;62772;48.646;8.906;2024-01-30T07:13:02;13.50;;;7.80;;
4597;SDS011;62772;48.646;8.906;2024-01-30T07:18:05;14.70;;;8.93;;
4597;SDS011;62772;48.646;8.906;2024-01-30T07:23:06;21.30;;;9.20;;
4597;SDS011;62772;48.646;8.906;2024-01-30T07:28:06;12.43;;;8.23;;
4597;SDS011;62772;48.646;8.906;2024-01-30T07:33:09;12.27;;;7.50;;
4597;SDS011;62772;48.646;8.906;2024-01-30T07:38:09;14.60;;;8.27;;
4597;SDS011;62772;48.646;8.906;2024-01-30T07:43:10;13.20;;;7.53;;
4597;SDS011;62772;48.646;8.906;2024-01-30T07:48:10;15.40;;;8.23;;
4597;SDS011;62772;48.646;8.906;2024-01-30T07:53:11;18.70;;;10.23;;
4597;SDS011;62772;48.646;8.906;2024-01-30T07:58:12;21.53;;;11.30;;
4597;SDS011;62772;48.646;8.906;2024-01-30T08:03:12;18.60;;;10.60;;
4597;SDS011;62772;48.646;8.906;2024-01-30T08:08:13;19.60;;;11.10;;
4597;SDS011;62772;48.646;8.906;2024-01-30T08:13:13;21.23;;;11.80;;
4597;SDS011;62772;48.646;8.906;2024-01-30T08:18:13;22.40;;;13.33;;
4597;SDS011;62772;48.646;8.906;2024-01-30T08:23:14;30.10;;;14.40;;
4597;SDS011;62772;48.646;8.906;2024-01-30T08:28:14;24.00;;;13.53;;
4597;SDS011;62772;48.646;8.906;2024-01-30T08:33:15;27.37;;;16.07;;
4597;SDS011;62772;48.646;8.906;2024-01-30T08:38:15;24.93;;;13.30;;
4597;SDS011;62772;48.646;8.906;2024-01-30T08:43:15;25.67;;;15.07;;
4597;SDS011;62772;48.646;8.906;2024-01-30T08:48:16;23.00;;;13.97;;
4597;SDS011;62772;48.646;8.906;2024-01-30T08:53:17;25.63;;;14.40;;
4597;SDS011;62772;48.646;8.906;2024-01-30T08:58:18;23.93;;;14.70;;
4597;SDS011;62772;48.646;8.906;2024-01-30T09:03:19;21.20;;;12.70;;
4597;SDS011;62772;48.646;8.906;2024-01-30T09:08:19;29.63;;;13.97;;
4597;SDS011;62772;48.646;8.906;2024-01-30T09:13:20;24.63;;;12.77;;
4597;SDS011;62772;48.646;8.906;2024-01-30T09:18:20;21.27;;;13.03;;
4597;SDS011;62772;48.646;8.906;2024-01-30T09:23:21;25.67;;;14.50;;
4597;SDS011;62772;48.646;8.906;2024-01-30T09:28:22;23.70;;;13.73;;
4597;SDS011;62772;48.646;8.906;2024-01-30T09:33:22;21.07;;;12.70;;
4597;SDS011;62772;48.646;8.906;2024-01-30T09:38:22;19.73;;;12.43;;
4597;SDS011;62772;48.646;8.906;2024-01-30T09:43:23;25.20;;;13.90;;
4597;SDS011;62772;48.646;8.906;2024-01-30T09:48:24;21.80;;;11.40;;
4597;SDS011;62772;48.646;8.906;2024-01-30T09:53:26;17.53;;;8.93;;
4597;SDS011;62772;48.646;8.906;2024-01-30T09:58:26;15.40;;;9.40;;
4597;SDS011;62772;48.646;8.906;2024-01-30T10:03:27;24.60;;;11.70;;
4597;SDS011;62772;48.646;8.906;2024-01-30T10:08:27;21.67;;;11.80;;
4597;SDS011;62772;48.646;8.906;2024-01-30T10:13:29;30.00;;;16.33;;
4597;SDS011;62772;48.646;8.906;2024-01-30T10:18:30;17.90;;;10.10;;
4597;SDS011;62772;48.646;8.906;2024-01-30T10:23:30;18.23;;;9.23;;
4597;SDS011;62772;48.646;8.906;2024-01-30T10:28:31;13.93;;;9.00;;
4597;SDS011;62772;48.646;8.906;2024-01-30T10:33:31;23.73;;;12.40;;
4597;SDS011;62772;48.646;8.906;2024-01-30T10:38:32;18.93;;;11.60;;
4597;SDS011;62772;48.646;8.906;2024-01-30T10:43:36;13.40;;;8.03;;
4597;SDS011;62772;48.646;8.906;2024-01-30T10:48:42;14.93;;;7.97;;
4597;SDS011;62772;48.646;8.906;2024-01-30T10:53:44;13.37;;;7.13;;
4597;SDS011;62772;48.646;8.906;2024-01-30T10:58:47;11.90;;;7.03;;
4597;SDS011;62772;48.646;8.906;2024-01-30T11:03:53;54.23;;;28.23;;
4597;SDS011;62772;48.646;8.906;2024-01-30T11:09:03;12.60;;;7.90;;
4597;SDS011;62772;48.646;8.906;2024-01-30T11:14:09;15.10;;;8.77;;
4597;SDS011;62772;48.646;8.906;2024-01-30T11:19:10;11.70;;;7.90;;
4597;SDS011;62772;48.646;8.906;2024-01-30T11:24:11;13.60;;;8.40;;
4597;SDS011;62772;48.646;8.906;2024-01-30T11:29:14;14.40;;;8.47;;
4597;SDS011;62772;48.646;8.906;2024-01-30T11:34:15;13.87;;;8.00;;
4597;SDS011;62772;48.646;8.906;2024-01-30T11:39:16;14.10;;;8.37;;
4597;SDS011;62772;48.646;8.906;2024-01-30T11:44:17;15.37;;;8.27;;
4597;SDS011;62772;48.646;8.906;2024-01-30T11:49:20;14.93;;;8.67;;
4597;SDS011;62772;48.646;8.906;2024-01-30T11:54:20;13.23;;;8.27;;
4597;SDS011;62772;48.646;8.906;2024-01-30T11:59:21;21.33;;;10.33;;
4597;SDS011;62772;48.646;8.906;2024-01-30T12:04:21;17.33;;;9.87;;
4597;SDS011;62772;48.646;8.906;2024-01-30T12:09:22;17.77;;;10.00;;
4597;SDS011;62772;48.646;8.906;2024-01-30T12:14:23;14.30;;;8.50;;
4597;SDS011;62772;48.646;8.906;2024-01-30T12:19:26;17.97;;;9.57;;
4597;SDS011;62772;48.646;8.906;2024-01-30T12:24:27;14.23;;;8.40;;
4597;SDS011;62772;48.646;8.906;2024-01-30T12:29:32;17.57;;;10.00;;
4597;SDS011;62772;48.646;8.906;2024-01-30T12:34:33;19.40;;;10.93;;
4597;SDS011;62772;48.646;8.906;2024-01-30T12:39:33;19.77;;;11.70;;
4597;SDS011;62772;48.646;8.906;2024-01-30T12:44:35;16.83;;;9.10;;
4597;SDS011;62772;48.646;8.906;2024-01-30T12:49:35;15.60;;;8.50;;
4597;SDS011;62772;48.646;8.906;2024-01-30T12:54:36;12.97;;;7.80;;
4597;SDS011;62772;48.646;8.906;2024-01-30T12:59:36;12.63;;;8.20;;
4597;SDS011;62772;48.646;8.906;2024-01-30T13:04:37;11.90;;;7.23;;
4597;SDS011;62772;48.646;8.906;2024-01-30T13:09:38;10.50;;;6.70;;
4597;SDS011;62772;48.646;8.906;2024-01-30T13:14:38;16.37;;;6.53;;
4597;SDS011;62772;48.646;8.906;2024-01-30T13:19:39;11.37;;;7.20;;
4597;SDS011;62772;48.646;8.906;2024-01-30T13:24:39;11.17;;;6.70;;
4597;SDS011;62772;48.646;8.906;2024-01-30T13:29:39;10.17;;;6.43;;
4597;SDS011;62772;48.646;8.906;2024-01-30T13:34:40;8.90;;;6.03;;
4597;SDS011;62772;48.646;8.906;2024-01-30T13:39:41;8.60;;;5.60;;
4597;SDS011;62772;48.646;8.906;2024-01-30T13:44:41;8.67;;;5.20;;
4597;SDS011;62772;48.646;8.906;2024-01-30T13:49:44;9.47;;;5.67;;
4597;SDS011;62772;48.646;8.906;2024-01-30T13:54:44;11.03;;;5.40;;
4597;SDS011;62772;48.646;8.906;2024-01-30T13:59:45;8.97;;;5.13;;
4597;SDS011;62772;48.646;8.906;2024-01-30T14:04:45;10.27;;;5.63;;
4597;SDS011;62772;48.646;8.906;2024-01-30T14:09:47;12.03;;;5.27;;
4597;SDS011;62772;48.646;8.906;2024-01-30T14:14:48;28.63;;;6.07;;
4597;SDS011;62772;48.646;8.906;2024-01-30T14:19:48;8.63;;;5.00;;
4597;SDS011;62772;48.646;8.906;2024-01-30T14:24:49;22.57;;;7.80;;
4597;SDS011;62772;48.646;8.906;2024-01-30T14:29:49;15.00;;;5.17;;
4597;SDS011;62772;48.646;8.906;2024-01-30T14:34:50;22.83;;;6.47;;
4597;SDS011;62772;48.646;8.906;2024-01-30T14:39:51;14.70;;;6.80;;
4597;SDS011;62772;48.646;8.906;2024-01-30T14:44:51;9.57;;;5.70;;
4597;SDS011;62772;48.646;8.906;2024-01-30T14:49:51;8.03;;;4.33;;
4597;SDS011;62772;48.646;8.906;2024-01-30T14:54:52;7.10;;;5.20;;
4597;SDS011;62772;48.646;8.906;2024-01-30T14:59:53;7.27;;;4.60;;
4597;SDS011;62772;48.646;8.906;2024-01-30T15:04:53;11.10;;;4.90;;
4597;SDS011;62772;48.646;8.906;2024-01-30T15:09:53;12.10;;;5.00;;
4597;SDS011;62772;48.646;8.906;2024-01-30T15:14:54;8.90;;;5.20;;
4597;SDS011;62772;48.646;8.906;2024-01-30T15:19:54;11.10;;;5.97;;
4597;SDS011;62772;48.646;8.906;2024-01-30T15:24:55;17.40;;;6.13;;
4597;SDS011;62772;48.646;8.906;2024-01-30T15:29:55;12.93;;;6.43;;
4597;SDS011;62772;48.646;8.906;2024-01-30T15:34:56;11.23;;;6.90;;
4597;SDS011;62772;48.646;8.906;2024-01-30T15:39:56;11.60;;;7.27;;
4597;SDS011;62772;48.646;8.906;2024-01-30T15:44:57;10.07;;;6.60;;
4597;SDS011;62772;48.646;8.906;2024-01-30T15:49:58;12.00;;;6.60;;
4597;SDS011;62772;48.646;8.906;2024-01-30T15:54:59;10.43;;;6.57;;
4597;SDS011;62772;48.646;8.906;2024-01-30T15:59:59;11.80;;;6.90;;
4597;SDS011;62772;48.646;8.906;2024-01-30T16:05:00;9.93;;;6.50;;
4597;SDS011;62772;48.646;8.906;2024-01-30T16:10:02;10.73;;;6.60;;
4597;SDS011;62772;48.646;8.906;2024-01-30T16:15:02;11.27;;;7.20;;
4597;SDS011;62772;48.646;8.906;2024-01-30T16:20:04;20.43;;;9.00;;
4597;SDS011;62772;48.646;8.906;2024-01-30T16:25:05;16.87;;;9.40;;
4597;SDS011;62772;48.646;8.906;2024-01-30T16:30:06;14.60;;;6.97;;
4597;SDS011;62772;48.646;8.906;2024-01-30T16:35:07;15.90;;;8.00;;
4597;SDS011;62772;48.646;8.906;2024-01-30T16:40:07;19.50;;;8.87;;
4597;SDS011;62772;48.646;8.906;2024-01-30T16:45:08;19.73;;;7.87;;
4597;SDS011;62772;48.646;8.906;2024-01-30T16:50:09;17.20;;;7.53;;
4597;SDS011;62772;48.646;8.906;2024-01-30T16:55:10;12.60;;;7.30;;
4597;SDS011;62772;48.646;8.906;2024-01-30T17:00:10;11.80;;;7.40;;
4597;SDS011;62772;48.646;8.906;2024-01-30T17:05:11;21.50;;;10.10;;
4597;SDS011;62772;48.646;8.906;2024-01-30T17:10:12;17.10;;;9.90;;
4597;SDS011;62772;48.646;8.906;2024-01-30T17:15:13;19.03;;;9.37;;
4597;SDS011;62772;48.646;8.906;2024-01-30T17:20:14;23.20;;;12.60;;
4597;SDS011;62772;48.646;8.906;2024-01-30T17:25:14;27.20;;;11.80;;
4597;SDS011;62772;48.646;8.906;2024-01-30T17:30:19;26.27;;;11.00;;
4597;SDS011;62772;48.646;8.906;2024-01-30T17:35:21;13.93;;;8.70;;
4597;SDS011;62772;48.646;8.906;2024-01-30T17:40:21;19.90;;;7.47;;
4597;SDS011;62772;48.646;8.906;2024-01-30T17:45:22;14.20;;;7.00;;
4597;SDS011;62772;48.646;8.906;2024-01-30T17:50:22;14.80;;;7.60;;
4597;SDS011;62772;48.646;8.906;2024-01-30T17:55:23;10.93;;;7.47;;
4597;SDS011;62772;48.646;8.906;2024-01-30T18:00:24;16.10;;;9.70;;
4597;SDS011;62772;48.646;8.906;2024-01-30T18:05:25;17.60;;;9.17;;
4597;SDS011;62772;48.646;8.906;2024-01-30T18:10:25;21.00;;;10.20;;
4597;SDS011;62772;48.646;8.906;2024-01-30T18:15:26;20.80;;;11.47;;
4597;SDS011;62772;48.646;8.906;2024-01-30T18:20:26;19.83;;;12.03;;
4597;SDS011;62772;48.646;8.906;2024-01-30T18:25:26;19.03;;;11.60;;
4597;SDS011;62772;48.646;8.906;2024-01-30T18:30:27;16.67;;;11.20;;
4597;SDS011;62772;48.646;8.906;2024-01-30T18:35:28;19.03;;;11.50;;
4597;SDS011;62772;48.646;8.906;2024-01-30T18:40:29;22.57;;;12.23;;
4597;SDS011;62772;48.646;8.906;2024-01-30T18:45:29;18.50;;;11.17;;
4597;SDS011;62772;48.646;8.906;2024-01-30T18:50:30;17.50;;;10.60;;
4597;SDS011;62772;48.646;8.906;2024-01-30T18:55:30;18.70;;;10.33;;
4597;SDS011;62772;48.646;8.906;2024-01-30T19:00:31;15.70;;;10.20;;
4597;SDS011;62772;48.646;8.906;2024-01-30T19:05:33;17.00;;;10.30;;
4597;SDS011;62772;48.646;8.906;2024-01-30T19:10:34;20.23;;;12.60;;
4597;SDS011;62772;48.646;8.906;2024-01-30T19:15:35;24.13;;;12.60;;
4597;SDS011;62772;48.646;8.906;2024-01-30T19:20:36;18.27;;;11.50;;
4597;SDS011;62772;48.646;8.906;2024-01-30T19:25:36;17.10;;;11.43;;
4597;SDS011;62772;48.646;8.906;2024-01-30T19:30:37;18.63;;;11.80;;
4597;SDS011;62772;48.646;8.906;2024-01-30T19:35:37;23.77;;;12.97;;
4597;SDS011;62772;48.646;8.906;2024-01-30T19:40:38;19.97;;;12.63;;
4597;SDS011;62772;48.646;8.906;2024-01-30T19:45:39;18.70;;;11.87;;
4597;SDS011;62772;48.646;8.906;2024-01-30T19:50:39;19.33;;;12.43;;
4597;SDS011;62772;48.646;8.906;2024-01-30T19:55:40;24.77;;;13.70;;
4597;SDS011;62772;48.646;8.906;2024-01-30T20:00:41;23.10;;;14.63;;
4597;SDS011;62772;48.646;8.906;2024-01-30T20:05:41;24.50;;;14.30;;
4597;SDS011;62772;48.646;8.906;2024-01-30T20:10:42;34.63;;;20.80;;
4597;SDS011;62772;48.646;8.906;2024-01-30T20:15:43;27.53;;;17.80;;
4597;SDS011;62772;48.646;8.906;2024-01-30T20:20:43;21.87;;;14.13;;
4597;SDS011;62772;48.646;8.906;2024-01-30T20:25:44;25.33;;;14.47;;
4597;SDS011;62772;48.646;8.906;2024-01-30T20:30:44;22.20;;;13.50;;
4597;SDS011;62772;48.646;8.906;2024-01-30T20:35:46;21.13;;;12.77;;
4597;SDS011;62772;48.646;8.906;2024-01-30T20:40:47;27.43;;;12.00;;
4597;SDS011;62772;48.646;8.906;2024-01-30T20:45:47;16.73;;;11.37;;
4597;SDS011;62772;48.646;8.906;2024-01-30T20:50:48;20.20;;;12.03;;
4597;SDS011;62772;48.646;8.906;2024-01-30T20:55:48;20.80;;;13.33;;
4597;SDS011;62772;48.646;8.906;2024-01-30T21:00:49;20.93;;;14.13;;
4597;SDS011;62772;48.646;8.906;2024-01-30T21:05:49;22.60;;;13.90;;
4597;SDS011;62772;48.646;8.906;2024-01-30T21:10:50;23.70;;;14.83;;
4597;SDS011;62772;48.646;8.906;2024-01-30T21:15:50;26.97;;;14.40;;
4597;SDS011;62772;48.646;8.906;2024-01-30T21:20:51;23.97;;;14.80;;
4597;SDS011;62772;48.646;8.906;2024-01-30T21:25:53;31.10;;;16.57;;
4597;SDS011;62772;48.646;8.906;2024-01-30T21:30:54;25.70;;;15.33;;
4597;SDS011;62772;48.646;8.906;2024-01-30T21:35:54;28.53;;;14.97;;
4597;SDS011;62772;48.646;8.906;2024-01-30T21:40:54;22.97;;;14.00;;
4597;SDS011;62772;48.646;8.906;2024-01-30T21:45:55;19.70;;;13.37;;
4597;SDS011;62772;48.646;8.906;2024-01-30T21:50:55;23.90;;;12.63;;
4597;SDS011;62772;48.646;8.906;2024-01-30T21:55:56;18.20;;;11.60;;
4597;SDS011;62772;48.646;8.906;2024-01-30T22:00:56;17.13;;;11.37;;
4597;SDS011;62772;48.646;8.906;2024-01-30T22:05:57;18.47;;;11.03;;
4597;SDS011;62772;48.646;8.906;2024-01-30T22:10:57;21.90;;;11.80;;
4597;SDS011;62772;48.646;8.906;2024-01-30T22:15:58;16.50;;;11.07;;
4597;SDS011;62772;48.646;8.906;2024-01-30T22:20:58;15.67;;;10.90;;
4597;SDS011;62772;48.646;8.906;2024-01-30T22:26:01;16.57;;;10.50;;
4597;SDS011;62772;48.646;8.906;2024-01-30T22:31:02;17.33;;;10.00;;
4597;SDS011;62772;48.646;8.906;2024-01-30T22:36:02;18.20;;;10.67;;
4597;SDS011;62772;48.646;8.906;2024-01-30T22:41:03;14.57;;;9.53;;
4597;SDS011;62772;48.646;8.906;2024-01-30T22:46:04;12.70;;;9.27;;
4597;SDS011;62772;48.646;8.906;2024-01-30T22:51:05;17.00;;;10.30;;
4597;SDS011;62772;48.646;8.906;2024-01-30T22:56:06;16.63;;;9.93;;
4597;SDS011;62772;48.646;8.906;2024-01-30T23:01:07;14.20;;;8.77;;
4597;SDS011;62772;48.646;8.906;2024-01-30T23:06:09;14.00;;;8.77;;
4597;SDS011;62772;48.646;8.906;2024-01-30T23:11:10;14.00;;;8.77;;
4597;SDS011;62772;48.646;8.906;2024-01-30T23:16:13;17.33;;;9.50;;
4597;SDS011;62772;48.646;8.906;2024-01-30T23:21:15;13.70;;;9.20;;
4597;SDS011;62772;48.646;8.906;2024-01-30T23:26:16;16.03;;;8.70;;
4597;SDS011;62772;48.646;8.906;2024-01-30T23:31:17;15.60;;;9.43;;
4597;SDS011;62772;48.646;8.906;2024-01-30T23:36:17;14.20;;;8.27;;
4597;SDS011;62772;48.646;8.906;2024-01-30T23:41:17;14.57;;;9.23;;
4597;SDS011;62772;48.646;8.906;2024-01-30T23:46:18;13.17;;;8.37;;
4597;SDS011;62772;48.646;8.906;2024-01-30T23:51:18;20.07;;;10.43;;
4597;SDS011;62772;48.646;8.906;2024-01-30T23:56:19;16.00;;;8.77;;
